Time;durP1;ratioP1;P1;durP2;ratioP2;P2;SDS_P1;SDS_P2;PMS_P1;PMS_P2;Temp;Humidity;BMP_temperature;BMP_pressure;BME280_temperature;BME280_humidity;BME280_pressure;Samples;Min_cycle;Max_cycle;Signal;HPM_P1;HPM_P2
2022/12/30 00:00:38;;;;;;;4.35;1.20;;;;;;;15.97;64.03;100343.91;20240899;29;20052;-91
2022/12/30 00:10:39;;;;;;;4.23;1.23;;;;;;;15.77;64.09;100330.38;20218784;29;20048;-91
2022/12/30 01:02:03;;;;;;;5.32;1.70;;;;;;;15.95;63.57;100402.25;20271121;29;20135;-90
2022/12/30 01:12:08;;;;;;;4.53;1.40;;;;;;;15.95;63.13;100421.88;20384928;28;20071;-90
2022/12/30 01:22:10;;;;;;;4.40;1.57;;;;;;;15.94;63.16;100417.50;20334977;29;20052;-90
2022/12/30 01:32:17;;;;;;;3.20;1.33;;;;;;;15.95;62.85;100434.47;20221335;29;20285;-89
2022/12/30 01:42:22;;;;;;;4.78;1.80;;;;;;;15.94;62.91;100455.06;20206074;29;20057;-90
2022/12/30 01:52:25;;;;;;;4.15;1.50;;;;;;;15.69;62.94;100434.88;20246157;29;20064;-91
2022/12/30 02:02:27;;;;;;;5.05;1.48;;;;;;;15.94;62.72;100487.28;20251642;29;20488;-90
2022/12/30 02:12:29;;;;;;;5.10;1.67;;;;;;;15.94;62.42;100487.28;20227144;29;20463;-90
2022/12/30 02:22:56;;;;;;;5.72;1.75;;;;;;;15.93;62.15;100485.59;20253236;29;20495;-90
2022/12/30 02:33:18;;;;;;;4.18;1.63;;;;;;;15.93;62.24;100490.13;20334617;29;20060;-89
2022/12/30 02:54:03;;;;;;;5.53;1.63;;;;;;;15.81;62.23;100476.72;20235167;29;20044;-91
2022/12/30 03:04:08;;;;;;;3.90;1.40;;;;;;;15.93;61.95;100503.56;20323337;29;20051;-90
2022/12/30 03:14:17;;;;;;;5.33;1.40;;;;;;;15.62;62.18;100455.16;20350413;29;20099;-89
2022/12/30 03:34:45;;;;;;;3.83;1.13;;;;;;;15.92;62.06;100504.53;20345057;29;20134;-90
2022/12/30 03:44:47;;;;;;;3.65;1.40;;;;;;;15.90;61.68;100496.59;20318343;29;20052;-90
2022/12/30 03:54:50;;;;;;;4.75;1.33;;;;;;;15.91;61.72;100502.84;20351378;29;20048;-89
2022/12/30 04:04:52;;;;;;;4.15;1.35;;;;;;;15.89;61.92;100511.00;20321561;29;20119;-90
2022/12/30 04:14:53;;;;;;;2.45;0.95;;;;;;;15.85;61.97;100497.94;20324745;29;20044;-90
2022/12/30 04:24:55;;;;;;;3.50;1.17;;;;;;;15.81;61.65;100503.56;20342270;29;20417;-89
2022/12/30 04:34:58;;;;;;;3.42;1.13;;;;;;;15.84;61.85;100515.03;20345097;29;20126;-90
2022/12/30 04:45:00;;;;;;;5.15;1.55;;;;;;;15.88;61.74;100520.03;20333813;28;20085;-90
2022/12/30 04:55:01;;;;;;;3.38;1.10;;;;;;;15.87;61.62;100512.94;20344335;29;20114;-90
2022/12/30 05:05:03;;;;;;;3.72;1.20;;;;;;;15.87;61.09;100533.56;20332390;28;20051;-90
2022/12/30 05:15:05;;;;;;;3.38;1.48;;;;;;;15.56;61.07;100467.28;20334203;29;20060;-90
2022/12/30 05:35:28;;;;;;;2.90;1.02;;;;;;;15.87;61.25;100537.09;20326566;29;20083;-89
2022/12/30 05:45:29;;;;;;;5.57;1.58;;;;;;;15.86;61.08;100521.97;20332038;28;20052;-88
2022/12/30 05:55:31;;;;;;;2.78;0.98;;;;;;;15.86;60.82;100510.38;20340411;29;20624;-91
2022/12/30 06:05:32;;;;;;;3.88;1.20;;;;;;;15.87;60.97;100501.34;20315501;28;20390;-90
2022/12/30 06:15:34;;;;;;;2.13;0.93;;;;;;;15.28;61.91;100401.72;20314938;29;20063;-92
2022/12/30 06:25:35;;;;;;;5.47;1.83;;;;;;;15.84;66.28;100443.41;20330555;29;20103;-90
2022/12/30 06:35:37;;;;;;;3.75;2.00;;;;;;;16.32;66.58;100479.53;20270693;29;20056;-87
2022/12/30 06:45:39;;;;;;;3.35;1.10;;;;;;;16.46;66.17;100475.63;20241745;29;20109;-88
2022/12/30 06:55:40;;;;;;;2.25;1.00;;;;;;;16.41;66.00;100456.38;20237193;29;20060;-88
2022/12/30 07:05:42;;;;;;;4.20;1.15;;;;;;;16.58;65.77;100495.16;20240628;29;20964;-90
2022/12/30 07:15:43;;;;;;;3.65;0.95;;;;;;;16.46;65.49;100464.03;20231035;29;20048;-89
2022/12/30 07:25:46;;;;;;;2.67;0.88;;;;;;;16.62;65.05;100480.47;20283429;29;20693;-89
2022/12/30 07:35:47;;;;;;;1.95;0.95;;;;;;;16.59;64.66;100463.78;20320273;29;20115;-89
2022/12/30 07:45:49;;;;;;;2.05;1.00;;;;;;;16.65;64.56;100458.69;20323338;29;20552;-90
2022/12/30 07:55:51;;;;;;;3.42;1.08;;;;;;;16.68;64.17;100454.88;20322124;29;20104;-89
2022/12/30 08:05:52;;;;;;;2.35;0.98;;;;;;;16.68;64.09;100444.97;20300351;29;20052;-89
2022/12/30 08:15:54;;;;;;;2.63;0.80;;;;;;;16.71;63.83;100424.16;20329555;29;20056;-89
2022/12/30 08:25:56;;;;;;;2.63;0.85;;;;;;;16.58;63.65;100408.34;20348717;29;20063;-88
2022/12/30 08:36:03;;;;;;;2.50;1.30;;;;;;;16.63;63.31;100395.31;20363573;29;20051;-88
2022/12/30 08:46:05;;;;;;;3.10;1.00;;;;;;;16.36;61.61;100341.28;20352714;28;20051;-88
2022/12/30 08:56:18;;;;;;;2.97;1.20;;;;;;;16.47;61.16;100374.38;20359951;29;20493;-89
2022/12/30 09:06:21;;;;;;;2.90;1.30;;;;;;;16.43;61.01;100362.22;20376988;29;20107;-89
2022/12/30 09:16:23;;;;;;;2.45;1.10;;;;;;;16.34;61.03;100356.66;20346985;29;20047;-86
2022/12/30 09:26:27;;;;;;;3.72;1.10;;;;;;;16.28;61.10;100330.38;20369079;29;20499;-89
2022/12/30 09:36:28;;;;;;;2.53;1.13;;;;;;;16.24;61.03;100326.25;20333345;28;20056;-85
2022/12/30 09:46:43;;;;;;;4.05;1.10;;;;;;;16.00;61.03;100276.50;20338255;28;20501;-85
2022/12/30 09:56:47;;;;;;;1.83;0.80;;;;;;;16.18;60.92;100300.84;20337423;29;20055;-85
2022/12/30 10:07:02;;;;;;;3.25;0.80;;;;;;;16.16;60.84;100288.53;20339542;28;20072;-86
2022/12/30 10:17:42;;;;;;;3.25;1.05;;;;;;;16.15;60.57;100265.34;20275093;29;20525;-88
2022/12/30 10:27:48;;;;;;;1.92;0.85;;;;;;;16.14;60.76;100255.59;20326866;29;20130;-87
2022/12/30 10:37:55;;;;;;;3.17;1.10;;;;;;;16.12;60.33;100203.88;20351825;29;20051;-86
2022/12/30 10:48:34;;;;;;;2.67;0.98;;;;;;;16.13;60.57;100167.97;20386389;29;20059;-90
2022/12/30 10:58:47;;;;;;;3.13;0.80;;;;;;;16.11;60.32;100137.72;20347602;28;20055;-88
2022/12/30 11:08:49;;;;;;;2.78;0.90;;;;;;;16.11;59.88;100113.56;20394749;28;20047;-88
2022/12/30 11:18:50;;;;;;;2.13;1.10;;;;;;;16.09;60.23;100089.53;20384205;28;20059;-88
2022/12/30 11:28:58;;;;;;;3.17;1.00;;;;;;;15.92;60.16;100035.59;20377707;28;20047;-88
2022/12/30 11:39:05;;;;;;;2.05;0.95;;;;;;;16.08;60.21;100043.03;20340324;29;20060;-92
2022/12/30 11:49:28;;;;;;;2.92;0.80;;;;;;;16.05;60.04;99984.28;20389284;28;20056;-92
2022/12/30 11:59:38;;;;;;;2.10;0.82;;;;;;;16.08;60.49;99962.50;20355221;28;20068;-87
2022/12/30 12:09:42;;;;;;;1.75;0.80;;;;;;;16.09;60.17;99931.09;20305293;29;20498;-87
2022/12/30 12:19:59;;;;;;;2.40;0.80;;;;;;;16.07;60.03;99896.38;20288778;29;20067;-87
2022/12/30 12:30:00;;;;;;;1.90;0.82;;;;;;;15.90;59.91;99835.41;20391756;28;20107;-88
2022/12/30 12:40:14;;;;;;;3.65;1.02;;;;;;;16.05;59.93;99820.50;20279517;28;20056;-87
2022/12/30 12:50:34;;;;;;;1.95;0.88;;;;;;;15.88;60.10;99770.28;20303636;29;20067;-93
2022/12/30 13:00:51;;;;;;;2.08;0.80;;;;;;;16.07;60.74;99764.81;20289079;29;20057;-87
2022/12/30 13:11:12;;;;;;;2.28;0.70;;;;;;;16.08;60.33;99749.53;20279106;29;20152;-88
2022/12/30 13:21:34;;;;;;;2.67;0.70;;;;;;;15.78;59.94;99682.59;20275560;29;20058;-86
2022/12/30 13:32:02;;;;;;;1.60;0.82;;;;;;;16.05;59.96;99686.28;20332774;28;20048;-86
2022/12/30 13:42:22;;;;;;;1.15;0.63;;;;;;;16.05;59.91;99651.38;20318427;29;20059;-84
2022/12/30 13:52:25;;;;;;;1.90;0.70;;;;;;;15.77;59.76;99567.41;20315431;29;20150;-85
2022/12/30 14:02:46;;;;;;;1.65;0.80;;;;;;;16.02;59.79;99592.63;20307336;29;20484;-88
2022/12/30 14:13:11;;;;;;;1.48;0.57;;;;;;;15.65;59.56;99497.84;20282516;29;20397;-85
2022/12/30 14:23:36;;;;;;;2.78;0.80;;;;;;;16.01;59.84;99542.63;20308127;29;20093;-90
2022/12/30 14:33:39;;;;;;;1.73;0.70;;;;;;;16.03;60.70;99497.66;20324379;28;20067;-87
2022/12/30 14:44:00;;;;;;;1.67;0.80;;;;;;;16.03;60.54;99435.91;20301651;28;20138;-87
2022/12/30 14:54:04;;;;;;;2.30;0.60;;;;;;;16.03;60.41;99398.34;20307373;28;20173;-84
2022/12/30 15:04:16;;;;;;;1.08;0.50;;;;;;;15.57;60.52;99325.31;20304425;29;20055;-84
2022/12/30 15:14:17;;;;;;;2.15;0.88;;;;;;;16.01;60.75;99386.06;20290272;29;20134;-86
2022/12/30 15:24:19;;;;;;;2.25;0.70;;;;;;;16.00;60.90;99373.66;20356325;29;20536;-87
2022/12/30 15:34:24;;;;;;;1.20;0.70;;;;;;;15.81;61.05;99352.22;20355498;28;20708;-86
2022/12/30 15:44:26;;;;;;;1.17;0.60;;;;;;;15.75;61.35;99318.00;20364645;28;20048;-89
2022/12/30 15:54:30;;;;;;;1.20;0.63;;;;;;;15.99;61.43;99383.56;20342630;29;20048;-87
2022/12/30 16:04:40;;;;;;;1.02;0.52;;;;;;;16.00;61.75;99352.19;20333098;28;22445;-87
2022/12/30 16:14:42;;;;;;;0.65;0.50;;;;;;;15.85;61.92;99330.44;20298417;29;20056;-90
2022/12/30 16:24:43;;;;;;;1.85;0.82;;;;;;;15.99;62.02;99302.19;20317506;29;20056;-85
2022/12/30 16:34:46;;;;;;;1.73;0.65;;;;;;;15.76;62.36;99266.00;20323741;29;20143;-85
2022/12/30 16:44:47;;;;;;;1.15;0.75;;;;;;;15.91;62.50;99300.34;20309668;28;20574;-84
2022/12/30 16:54:49;;;;;;;1.33;0.70;;;;;;;15.98;62.77;99312.09;20298490;28;20044;-85
2022/12/30 17:04:50;;;;;;;3.40;0.68;;;;;;;15.99;63.00;99302.19;20315244;29;20052;-85
2022/12/30 17:14:52;;;;;;;2.42;0.80;;;;;;;15.97;63.15;99297.00;20304525;29;20082;-86
2022/12/30 17:24:54;;;;;;;1.60;0.70;;;;;;;15.85;63.28;99263.34;20320308;29;20051;-86
2022/12/30 17:34:55;;;;;;;1.48;0.70;;;;;;;15.94;63.55;99283.91;20306685;28;20649;-88
2022/12/30 17:44:57;;;;;;;1.55;0.90;;;;;;;15.99;63.86;99307.56;20303079;29;20093;-86
2022/12/30 17:54:58;;;;;;;1.65;0.70;;;;;;;15.76;64.10;99262.50;20304345;28;20091;-90
2022/12/30 18:05:00;;;;;;;2.38;1.33;;;;;;;15.99;64.54;99318.28;20337195;28;20059;-85
2022/12/30 18:15:01;;;;;;;1.02;0.50;;;;;;;15.99;64.67;99339.75;20301360;28;20075;-86
2022/12/30 18:25:03;;;;;;;2.28;0.60;;;;;;;15.99;64.98;99350.50;20309848;29;20067;-85
2022/12/30 18:35:13;;;;;;;1.10;0.60;;;;;;;16.01;65.20;99364.59;20291554;29;20056;-87
2022/12/30 18:45:14;;;;;;;2.97;0.70;;;;;;;16.01;65.60;99375.34;20327552;28;20048;-88
2022/12/30 18:55:17;;;;;;;1.40;0.70;;;;;;;16.01;65.98;99403.03;20318515;29;20044;-87
2022/12/30 19:05:19;;;;;;;1.38;0.80;;;;;;;16.01;66.19;99434.38;20329187;29;20528;-87
2022/12/30 19:15:21;;;;;;;1.25;0.73;;;;;;;16.01;66.32;99429.88;20342729;29;20108;-89
2022/12/30 19:25:22;;;;;;;1.10;0.60;;;;;;;16.01;66.68;99451.34;20326287;29;20052;-86
2022/12/30 19:35:24;;;;;;;0.88;0.50;;;;;;;16.01;66.88;99466.59;20358870;29;20048;-87
2022/12/30 19:45:25;;;;;;;1.08;0.50;;;;;;;16.00;67.20;99473.81;20352231;29;20175;-87
2022/12/30 19:55:27;;;;;;;1.58;0.70;;;;;;;16.02;67.67;99473.66;20324960;29;20062;-88
2022/12/30 20:05:28;;;;;;;2.85;1.02;;;;;;;15.81;67.83;99473.00;20315565;29;20052;-87
2022/12/30 20:15:34;;;;;;;3.42;0.88;;;;;;;15.76;68.01;99496.78;20321657;29;20137;-87
2022/12/30 20:25:39;;;;;;;1.50;0.93;;;;;;;16.02;68.11;99559.53;20356246;29;20509;-87
2022/12/30 20:35:49;;;;;;;1.90;0.97;;;;;;;16.02;68.53;99564.91;20381612;29;20055;-87
2022/12/30 20:45:51;;;;;;;1.20;0.80;;;;;;;16.02;68.63;99595.31;20397453;29;20580;-88
2022/12/30 20:55:52;;;;;;;2.40;1.10;;;;;;;16.02;68.99;99608.72;20395288;29;20445;-88
2022/12/30 21:05:54;;;;;;;2.75;1.02;;;;;;;16.02;68.76;99638.25;20395450;29;20051;-87
2022/12/30 21:16:04;;;;;;;2.75;1.33;;;;;;;16.02;69.05;99662.41;20394946;29;20527;-87
2022/12/30 21:26:10;;;;;;;3.47;1.08;;;;;;;15.90;69.03;99652.88;20473103;28;20052;-88
2022/12/30 21:36:13;;;;;;;2.55;0.90;;;;;;;15.76;69.15;99625.56;20455671;28;20058;-86
2022/12/30 22:07:05;;;;;;;2.58;0.70;;;;;;;16.03;69.30;99687.41;20456553;28;20077;-89
2022/12/30 22:17:07;;;;;;;2.28;0.90;;;;;;;16.02;69.38;99700.00;20470530;28;20055;-90
2022/12/30 22:27:08;;;;;;;2.33;0.75;;;;;;;16.02;69.49;99701.81;20469710;28;20079;-90
2022/12/30 22:37:10;;;;;;;1.83;0.90;;;;;;;15.95;69.69;99706.97;20469918;28;20054;-90
2022/12/30 22:47:11;;;;;;;2.15;0.80;;;;;;;15.83;69.94;99708.16;20429764;28;20052;-90
2022/12/30 22:57:13;;;;;;;2.38;0.80;;;;;;;16.03;70.10;99744.63;20311491;29;20408;-90
2022/12/30 23:07:15;;;;;;;2.13;1.10;;;;;;;16.02;70.11;99748.31;20326186;29;20115;-89
2022/12/30 23:17:16;;;;;;;2.35;0.90;;;;;;;15.92;70.23;99736.81;20312519;29;20060;-89
2022/12/30 23:27:18;;;;;;;3.10;0.98;;;;;;;16.03;70.31;99770.63;20322941;29;20051;-90
2022/12/30 23:37:19;;;;;;;1.90;0.63;;;;;;;16.03;70.53;99774.16;20324037;29;20068;-84
2022/12/30 23:47:22;;;;;;;1.35;0.70;;;;;;;15.84;70.63;99760.81;20323127;29;20154;-90
2022/12/30 23:57:23;;;;;;;1.40;0.68;;;;;;;16.04;71.02;99789.28;20337081;29;20531;-87
